Time;durP1;ratioP1;P1;durP2;ratioP2;P2;SDS_P1;SDS_P2;PMS_P1;PMS_P2;Temp;Humidity;BMP_temperature;BMP_pressure;BME280_temperature;BME280_humidity;BME280_pressure;Samples;Min_cycle;Max_cycle;Signal;HPM_P1;HPM_P2
2024/01/05 00:01:21;;;;;;;13.17;7.83;;;2.80;80.50;;;;;;5092687;28;20425;-78
2024/01/05 00:03:47;;;;;;;12.15;7.65;;;2.80;81.00;;;;;;5095137;28;20436;-78
2024/01/05 00:06:13;;;;;;;12.13;7.57;;;2.80;80.50;;;;;;5092855;28;20410;-78
2024/01/05 00:08:38;;;;;;;10.37;7.30;;;2.80;80.90;;;;;;5094131;28;20927;-78
2024/01/05 00:11:04;;;;;;;9.68;6.82;;;2.80;81.40;;;;;;5092676;28;20407;-79
2024/01/05 00:13:29;;;;;;;9.77;7.13;;;2.80;81.60;;;;;;5092079;28;21009;-78
2024/01/05 00:15:55;;;;;;;10.40;7.43;;;2.70;80.90;;;;;;5091001;28;20533;-78
2024/01/05 00:18:20;;;;;;;10.57;7.13;;;2.70;80.40;;;;;;5088797;28;20926;-78
2024/01/05 00:20:46;;;;;;;10.83;7.93;;;2.70;80.50;;;;;;5091489;28;20437;-78
2024/01/05 00:23:12;;;;;;;10.23;7.10;;;2.70;81.20;;;;;;5091373;28;20533;-79
2024/01/05 00:25:37;;;;;;;10.63;7.37;;;2.60;80.90;;;;;;5091789;28;20398;-78
2024/01/05 00:28:03;;;;;;;10.87;7.90;;;2.70;81.60;;;;;;5092178;28;20390;-78
2024/01/05 00:30:29;;;;;;;11.18;7.80;;;2.60;81.70;;;;;;5089925;28;20429;-78
2024/01/05 00:32:55;;;;;;;11.65;8.18;;;2.60;82.20;;;;;;5090777;28;20398;-79
2024/01/05 00:35:20;;;;;;;11.90;8.02;;;2.60;83.30;;;;;;5090697;28;20840;-78
2024/01/05 00:37:46;;;;;;;13.20;7.97;;;2.60;83.60;;;;;;5090507;28;20398;-78
2024/01/05 00:40:12;;;;;;;12.73;7.93;;;2.60;83.40;;;;;;5089770;28;20413;-77
2024/01/05 00:42:38;;;;;;;11.83;7.83;;;2.60;83.40;;;;;;5071228;28;20838;-78
2024/01/05 00:45:04;;;;;;;12.30;7.67;;;2.60;84.30;;;;;;5088896;28;20410;-78
2024/01/05 00:47:30;;;;;;;12.57;8.10;;;2.60;85.20;;;;;;5070926;28;20459;-78
2024/01/05 00:49:55;;;;;;;12.98;8.10;;;2.60;86.00;;;;;;5088476;28;20402;-78
2024/01/05 00:52:21;;;;;;;16.02;8.45;;;2.60;86.30;;;;;;5101771;28;20933;-78
2024/01/05 00:54:48;;;;;;;14.37;8.50;;;2.60;87.20;;;;;;5103265;28;20426;-78
2024/01/05 00:57:14;;;;;;;14.50;8.95;;;2.60;88.10;;;;;;5091723;28;20421;-78
2024/01/05 00:59:39;;;;;;;15.70;8.60;;;2.60;88.90;;;;;;5090660;28;20772;-78
2024/01/05 01:02:05;;;;;;;14.00;8.95;;;2.60;89.80;;;;;;5093989;28;20421;-78
2024/01/05 01:04:30;;;;;;;14.70;8.70;;;2.60;89.90;;;;;;5090549;28;20448;-77
2024/01/05 01:06:56;;;;;;;14.60;8.50;;;2.60;90.00;;;;;;5092556;28;20930;-77
2024/01/05 01:09:24;;;;;;;16.73;9.45;;;2.60;90.30;;;;;;5090323;28;20415;-77
2024/01/05 01:11:50;;;;;;;15.75;9.05;;;2.60;90.50;;;;;;5090482;28;20511;-78
2024/01/05 01:14:16;;;;;;;14.70;8.90;;;2.60;90.10;;;;;;5091707;28;20455;-78
2024/01/05 01:16:41;;;;;;;14.63;9.20;;;2.60;90.70;;;;;;5094869;28;20408;-78
2024/01/05 01:19:07;;;;;;;15.33;9.30;;;2.60;91.00;;;;;;5088846;28;20406;-78
2024/01/05 01:21:33;;;;;;;14.03;8.93;;;2.60;91.20;;;;;;5094256;28;20400;-78
2024/01/05 01:23:58;;;;;;;17.38;9.27;;;2.60;91.40;;;;;;5090927;28;20888;-77
2024/01/05 01:26:24;;;;;;;17.00;9.90;;;2.60;91.80;;;;;;5094696;28;20416;-77
2024/01/05 01:28:50;;;;;;;18.63;10.43;;;2.50;91.60;;;;;;5090392;28;20509;-78
2024/01/05 01:31:15;;;;;;;17.95;9.93;;;2.50;91.80;;;;;;5092555;28;20406;-78
2024/01/05 01:33:41;;;;;;;19.55;10.70;;;2.50;92.40;;;;;;5091405;28;20422;-78
2024/01/05 01:36:06;;;;;;;18.60;10.33;;;2.60;92.50;;;;;;5076148;28;20416;-78
2024/01/05 01:38:32;;;;;;;19.60;11.13;;;2.50;92.50;;;;;;5089657;28;20417;-77
2024/01/05 01:40:58;;;;;;;19.75;11.43;;;2.50;92.60;;;;;;5094711;28;20404;-77
2024/01/05 01:43:27;;;;;;;21.58;11.27;;;2.50;93.00;;;;;;5086154;28;20528;-78
2024/01/05 01:45:59;;;;;;;20.20;11.10;;;2.60;93.10;;;;;;5080055;28;20448;-77
2024/01/05 01:48:26;;;;;;;20.80;11.30;;;2.50;92.90;;;;;;5087687;28;21011;-78
2024/01/05 01:50:54;;;;;;;23.13;11.45;;;2.60;93.20;;;;;;5102414;28;20408;-78
2024/01/05 01:53:21;;;;;;;17.00;10.65;;;2.50;93.00;;;;;;5091836;28;20974;-78
2024/01/05 01:55:49;;;;;;;17.90;9.38;;;2.50;93.20;;;;;;5098965;28;20406;-78
2024/01/05 01:58:16;;;;;;;18.63;10.07;;;2.50;92.60;;;;;;5100693;28;20404;-77
2024/01/05 02:00:43;;;;;;;19.23;10.70;;;2.50;92.80;;;;;;5100796;28;20475;-77
2024/01/05 02:03:09;;;;;;;19.58;11.07;;;2.50;93.10;;;;;;5099606;28;20471;-78
2024/01/05 02:05:36;;;;;;;22.75;10.82;;;2.50;92.90;;;;;;5087649;28;20490;-77
2024/01/05 02:08:02;;;;;;;20.52;10.63;;;2.50;93.10;;;;;;5107258;28;20397;-78
2024/01/05 02:10:28;;;;;;;19.27;10.35;;;2.50;93.00;;;;;;5105570;28;20426;-77
2024/01/05 02:12:56;;;;;;;17.50;10.32;;;2.50;93.10;;;;;;5088467;28;20417;-77
2024/01/05 02:15:22;;;;;;;20.13;11.00;;;2.50;93.20;;;;;;5104080;28;20461;-78
2024/01/05 02:17:48;;;;;;;21.23;11.27;;;2.50;93.40;;;;;;5098287;28;20402;-78
2024/01/05 02:20:13;;;;;;;20.33;10.87;;;2.50;93.30;;;;;;5099055;28;20408;-77
2024/01/05 02:22:44;;;;;;;20.55;11.20;;;2.50;93.30;;;;;;5104488;28;20439;-78
2024/01/05 02:25:09;;;;;;;19.75;10.90;;;2.50;93.40;;;;;;5087529;28;20412;-77
2024/01/05 02:27:36;;;;;;;20.30;11.10;;;2.50;93.30;;;;;;5104436;28;20766;-78
2024/01/05 02:30:02;;;;;;;21.42;11.40;;;2.50;93.30;;;;;;5093008;28;20413;-77
2024/01/05 02:32:27;;;;;;;21.92;11.60;;;2.50;93.40;;;;;;5104962;28;20657;-78
2024/01/05 02:34:53;;;;;;;22.90;11.30;;;2.50;93.40;;;;;;5106094;28;20400;-77
2024/01/05 02:37:18;;;;;;;21.57;11.37;;;2.50;93.40;;;;;;5104728;28;20409;-78
2024/01/05 02:39:44;;;;;;;19.33;10.35;;;2.50;93.70;;;;;;5105361;28;20404;-78
2024/01/05 02:42:10;;;;;;;20.02;10.48;;;2.60;93.60;;;;;;5100034;28;20425;-78
2024/01/05 02:44:36;;;;;;;20.63;10.80;;;2.60;93.60;;;;;;5103485;28;20985;-77
2024/01/05 02:47:01;;;;;;;20.13;10.45;;;2.50;93.40;;;;;;5108069;28;20479;-78
2024/01/05 02:49:27;;;;;;;26.00;13.73;;;2.60;93.60;;;;;;5108843;28;20744;-78
2024/01/05 02:51:53;;;;;;;27.60;14.52;;;2.60;93.60;;;;;;5102861;28;20455;-78
2024/01/05 02:54:18;;;;;;;23.23;12.10;;;2.60;93.50;;;;;;5102472;28;20400;-78
2024/01/05 02:56:44;;;;;;;20.75;11.02;;;2.50;93.60;;;;;;5107064;28;20890;-78
2024/01/05 02:59:09;;;;;;;18.63;10.20;;;2.60;93.90;;;;;;5109741;28;20406;-78
2024/01/05 03:01:35;;;;;;;19.53;10.40;;;2.50;94.30;;;;;;5107290;28;20770;-78
2024/01/05 03:04:01;;;;;;;19.95;11.13;;;2.60;94.80;;;;;;5109564;28;20428;-78
2024/01/05 03:06:27;;;;;;;21.17;11.38;;;2.50;94.90;;;;;;5107259;28;20449;-78
2024/01/05 03:08:53;;;;;;;22.30;11.38;;;2.50;95.00;;;;;;5098007;28;20991;-78
2024/01/05 03:11:19;;;;;;;22.20;11.17;;;2.50;95.40;;;;;;5105303;28;20475;-78
2024/01/05 03:13:44;;;;;;;20.58;11.35;;;2.50;95.90;;;;;;5109346;28;20404;-77
2024/01/05 03:16:10;;;;;;;20.83;10.90;;;2.50;96.00;;;;;;5106924;28;20396;-78
2024/01/05 03:18:35;;;;;;;22.53;10.67;;;2.50;96.20;;;;;;5109545;28;20892;-78
2024/01/05 03:21:01;;;;;;;24.83;11.95;;;2.50;96.00;;;;;;5105909;28;20399;-77
2024/01/05 03:23:27;;;;;;;27.10;13.27;;;2.50;96.50;;;;;;5107615;28;20428;-78
2024/01/05 03:25:52;;;;;;;26.17;12.83;;;2.50;96.70;;;;;;5105970;28;20412;-78
2024/01/05 03:28:18;;;;;;;25.77;13.43;;;2.50;97.00;;;;;;5108515;28;20939;-78
2024/01/05 03:30:43;;;;;;;22.17;11.90;;;2.50;97.10;;;;;;5102687;28;20427;-78
2024/01/05 03:33:09;;;;;;;24.35;11.88;;;2.50;97.30;;;;;;5099303;28;20409;-78
2024/01/05 03:35:38;;;;;;;24.20;12.23;;;2.50;97.30;;;;;;5104302;28;20402;-77
2024/01/05 03:38:04;;;;;;;23.20;11.98;;;2.50;97.20;;;;;;5107716;27;20396;-78
2024/01/05 03:40:29;;;;;;;21.63;11.02;;;2.50;97.20;;;;;;5102580;28;20404;-77
2024/01/05 03:42:56;;;;;;;21.97;11.27;;;2.50;97.30;;;;;;5106474;28;20512;-77
2024/01/05 03:45:21;;;;;;;19.38;10.73;;;2.50;97.40;;;;;;5097061;28;20794;-77
2024/01/05 03:47:47;;;;;;;21.75;11.50;;;2.50;97.60;;;;;;5099436;28;20460;-78
2024/01/05 03:50:13;;;;;;;22.03;12.07;;;2.50;97.70;;;;;;5100421;28;20429;-78
2024/01/05 03:52:38;;;;;;;24.30;12.63;;;2.50;97.90;;;;;;5096925;28;20409;-78
2024/01/05 03:55:04;;;;;;;21.45;11.35;;;2.50;98.00;;;;;;5100512;28;20410;-76
2024/01/05 03:57:30;;;;;;;22.42;11.30;;;2.50;97.80;;;;;;5106149;28;20946;-78
2024/01/05 03:59:56;;;;;;;21.60;11.30;;;2.50;98.20;;;;;;5103106;27;20493;-77
2024/01/05 04:02:21;;;;;;;21.73;11.80;;;2.50;98.60;;;;;;5104780;28;20976;-78
2024/01/05 04:04:47;;;;;;;21.10;11.70;;;2.50;98.70;;;;;;5101062;28;20409;-77
2024/01/05 04:07:13;;;;;;;21.38;11.57;;;2.50;99.60;;;;;;5104256;28;20440;-78
2024/01/05 04:09:38;;;;;;;21.90;11.90;;;2.50;99.90;;;;;;5101165;28;20424;-77
2024/01/05 04:12:04;;;;;;;20.70;11.57;;;2.50;99.90;;;;;;5104728;28;20804;-77
2024/01/05 04:14:30;;;;;;;22.75;12.20;;;2.50;99.90;;;;;;5099097;28;20484;-78
2024/01/05 04:16:56;;;;;;;20.83;11.25;;;2.50;99.90;;;;;;5103759;28;20461;-78
2024/01/05 04:19:22;;;;;;;25.00;12.37;;;2.50;99.90;;;;;;5098707;28;20413;-78
2024/01/05 04:21:48;;;;;;;22.45;11.48;;;2.50;99.90;;;;;;5095404;28;20407;-78
2024/01/05 04:24:13;;;;;;;21.70;11.43;;;2.60;99.90;;;;;;5098095;28;20410;-78
2024/01/05 04:26:39;;;;;;;23.63;11.87;;;2.60;99.90;;;;;;5103640;28;20415;-78
2024/01/05 04:29:04;;;;;;;23.73;12.13;;;2.60;99.90;;;;;;5098599;28;20766;-78
2024/01/05 04:31:30;;;;;;;22.65;11.85;;;2.60;99.90;;;;;;5104700;28;20465;-78
2024/01/05 04:33:56;;;;;;;21.30;11.40;;;2.60;99.90;;;;;;5098475;28;20437;-78
2024/01/05 04:36:21;;;;;;;22.63;11.80;;;2.60;99.90;;;;;;5104885;28;20778;-78
2024/01/05 04:38:47;;;;;;;22.33;12.10;;;2.60;99.90;;;;;;5098244;28;20412;-78
2024/01/05 04:41:15;;;;;;;21.97;11.77;;;2.60;99.90;;;;;;5104992;28;20400;-78
2024/01/05 04:43:42;;;;;;;23.00;11.95;;;2.60;99.90;;;;;;5097680;28;20434;-77
2024/01/05 04:46:08;;;;;;;24.48;12.63;;;2.60;99.90;;;;;;5102906;28;20442;-78
2024/01/05 04:48:34;;;;;;;22.67;11.93;;;2.60;99.90;;;;;;5098884;28;20406;-78
2024/01/05 04:51:00;;;;;;;23.10;11.98;;;2.60;99.90;;;;;;5097815;28;20418;-78
2024/01/05 04:53:26;;;;;;;22.95;13.05;;;2.60;99.90;;;;;;5092553;28;20479;-78
2024/01/05 04:55:52;;;;;;;24.05;13.38;;;2.60;99.90;;;;;;5109255;28;20550;-78
2024/01/05 04:58:18;;;;;;;29.13;14.23;;;2.60;99.90;;;;;;5107265;28;20401;-78
2024/01/05 05:00:43;;;;;;;26.48;13.88;;;2.60;99.90;;;;;;5097511;28;21178;-78
2024/01/05 05:03:13;;;;;;;28.45;14.50;;;2.60;99.90;;;;;;5105980;28;20519;-78
2024/01/05 05:05:39;;;;;;;25.80;14.15;;;2.60;99.90;;;;;;5108585;28;20909;-78
2024/01/05 05:08:06;;;;;;;24.73;13.90;;;2.60;99.90;;;;;;5101235;28;20455;-78
2024/01/05 05:10:32;;;;;;;29.13;14.45;;;2.60;99.90;;;;;;5101172;28;20447;-78
2024/01/05 05:12:58;;;;;;;26.75;14.40;;;2.60;99.90;;;;;;5106207;28;20456;-78
2024/01/05 05:15:23;;;;;;;26.97;14.53;;;2.60;99.90;;;;;;5097075;28;20440;-77
2024/01/05 05:17:51;;;;;;;26.83;14.88;;;2.60;99.90;;;;;;5106344;28;20404;-78
2024/01/05 05:20:16;;;;;;;25.05;13.80;;;2.60;99.90;;;;;;5108798;28;20404;-77
2024/01/05 05:22:42;;;;;;;26.87;14.17;;;2.70;99.90;;;;;;5105312;28;20996;-77
2024/01/05 05:25:08;;;;;;;29.65;15.27;;;2.60;99.90;;;;;;5107170;28;20820;-77
2024/01/05 05:27:33;;;;;;;25.95;14.63;;;2.70;99.90;;;;;;5091259;28;20468;-77
2024/01/05 05:30:03;;;;;;;24.23;13.67;;;2.60;99.90;;;;;;5105455;28;20396;-77
2024/01/05 05:32:28;;;;;;;24.45;13.57;;;2.60;99.90;;;;;;5102404;28;20400;-77
2024/01/05 05:34:54;;;;;;;25.13;13.40;;;2.60;99.90;;;;;;5094612;28;21056;-77
2024/01/05 05:37:20;;;;;;;25.63;13.90;;;2.60;99.90;;;;;;5100579;28;20429;-77
2024/01/05 05:39:46;;;;;;;26.92;13.63;;;2.60;99.90;;;;;;5087731;28;20774;-77
2024/01/05 05:42:11;;;;;;;24.15;13.65;;;2.60;99.90;;;;;;5101055;28;20420;-77
2024/01/05 05:44:37;;;;;;;26.33;14.52;;;2.70;99.90;;;;;;5104213;28;20400;-77
2024/01/05 05:47:03;;;;;;;24.13;14.10;;;2.60;99.90;;;;;;5101216;28;20411;-77
2024/01/05 05:49:28;;;;;;;28.83;15.20;;;2.60;99.90;;;;;;5105466;28;20812;-77
2024/01/05 05:51:54;;;;;;;28.05;14.85;;;2.60;99.90;;;;;;5097212;28;20438;-77
2024/01/05 05:54:20;;;;;;;28.08;15.32;;;2.70;99.90;;;;;;5098702;28;20408;-77
2024/01/05 05:56:46;;;;;;;30.40;16.10;;;2.70;99.90;;;;;;5104723;28;20408;-77
2024/01/05 05:59:11;;;;;;;31.43;16.53;;;2.70;99.90;;;;;;5094344;28;20441;-77
2024/01/05 06:01:37;;;;;;;36.70;18.52;;;2.70;99.90;;;;;;5103963;28;20412;-77
2024/01/05 06:04:05;;;;;;;34.40;17.70;;;2.70;99.90;;;;;;5107283;28;20436;-77
2024/01/05 06:06:31;;;;;;;31.33;16.95;;;2.70;99.90;;;;;;5093404;28;20748;-77
2024/01/05 06:08:56;;;;;;;28.95;15.80;;;2.80;99.90;;;;;;5107961;28;20401;-77
2024/01/05 06:11:26;;;;;;;31.13;16.45;;;2.80;99.90;;;;;;5091130;28;20415;-78
2024/01/05 06:13:52;;;;;;;26.38;14.82;;;2.80;99.90;;;;;;5105918;28;20397;-77
2024/01/05 06:16:17;;;;;;;28.87;15.40;;;2.80;99.90;;;;;;5102805;28;20416;-77
2024/01/05 06:18:43;;;;;;;35.37;18.13;;;2.80;99.90;;;;;;5098537;28;20396;-77
2024/01/05 06:21:09;;;;;;;39.33;16.90;;;2.80;99.90;;;;;;5086640;28;20535;-77
2024/01/05 06:23:35;;;;;;;37.38;17.83;;;2.80;99.90;;;;;;5098276;28;20947;-78
2024/01/05 06:26:00;;;;;;;39.28;18.73;;;2.80;99.90;;;;;;5098173;28;20416;-78
2024/01/05 06:28:26;;;;;;;45.10;20.40;;;2.80;99.90;;;;;;5090771;28;20449;-78
2024/01/05 06:30:52;;;;;;;38.20;18.23;;;2.80;99.90;;;;;;5093562;28;20457;-77
2024/01/05 06:33:17;;;;;;;37.03;17.83;;;2.80;99.90;;;;;;5097599;28;20956;-77
2024/01/05 06:35:43;;;;;;;35.83;18.03;;;2.80;99.90;;;;;;5102270;28;20415;-77
2024/01/05 06:38:09;;;;;;;32.57;16.10;;;2.80;99.90;;;;;;5105628;28;21000;-77
2024/01/05 06:40:34;;;;;;;30.75;17.30;;;2.80;99.90;;;;;;5089804;28;20404;-77
2024/01/05 06:43:00;;;;;;;28.45;15.95;;;2.80;99.90;;;;;;5105715;28;20485;-77
2024/01/05 06:45:26;;;;;;;31.33;15.57;;;2.80;99.90;;;;;;5102769;28;20396;-77
2024/01/05 06:47:51;;;;;;;31.45;15.93;;;2.80;99.90;;;;;;5087570;28;20404;-77
2024/01/05 06:50:17;;;;;;;32.08;16.88;;;2.80;99.90;;;;;;5101385;28;20457;-77
2024/01/05 06:52:43;;;;;;;36.83;17.27;;;2.80;99.90;;;;;;5091351;28;20831;-77
2024/01/05 06:55:09;;;;;;;33.65;17.20;;;2.80;99.90;;;;;;5102790;28;20411;-77
2024/01/05 06:57:35;;;;;;;31.60;16.67;;;2.80;99.90;;;;;;5107180;28;20423;-76
2024/01/05 07:00:11;;;;;;;33.58;18.13;;;2.80;99.90;;;;;;5104713;28;20416;-77
2024/01/05 07:02:40;;;;;;;30.10;17.13;;;2.90;99.90;;;;;;5105827;28;20435;-77
2024/01/05 07:05:06;;;;;;;33.38;17.50;;;2.80;99.90;;;;;;5105740;28;20413;-77
2024/01/05 07:07:32;;;;;;;33.92;16.98;;;2.80;99.90;;;;;;5106177;28;20408;-77
2024/01/05 07:09:58;;;;;;;35.05;17.58;;;2.80;99.90;;;;;;5107460;28;20426;-77
2024/01/05 07:12:24;;;;;;;32.50;17.10;;;2.80;99.90;;;;;;5105124;28;20408;-77
2024/01/05 07:14:49;;;;;;;28.77;16.48;;;2.90;99.90;;;;;;5106940;28;20475;-77
2024/01/05 07:17:15;;;;;;;32.33;15.43;;;2.90;99.90;;;;;;5105352;28;20496;-77
2024/01/05 07:19:41;;;;;;;30.67;15.93;;;2.90;99.90;;;;;;5106765;28;20396;-77
2024/01/05 07:22:09;;;;;;;29.50;16.15;;;2.90;99.90;;;;;;5105654;28;20397;-77
2024/01/05 07:24:38;;;;;;;29.90;15.50;;;2.90;99.90;;;;;;5073739;28;20460;-77
2024/01/05 07:27:09;;;;;;;28.23;16.13;;;2.90;99.90;;;;;;5097603;28;20400;-77
2024/01/05 07:29:34;;;;;;;30.08;15.82;;;2.90;99.90;;;;;;5102099;28;20765;-77
2024/01/05 07:32:01;;;;;;;28.77;16.05;;;2.90;99.90;;;;;;5103916;28;20404;-77
2024/01/05 07:34:26;;;;;;;31.42;17.77;;;2.90;99.90;;;;;;5110089;28;20468;-77
2024/01/05 07:36:52;;;;;;;32.72;17.38;;;2.90;99.90;;;;;;5106804;28;20491;-78
2024/01/05 07:39:17;;;;;;;36.57;17.80;;;2.90;99.90;;;;;;5109487;28;20413;-77
2024/01/05 07:41:43;;;;;;;35.13;18.40;;;2.90;99.90;;;;;;5108622;28;20400;-77
2024/01/05 07:44:09;;;;;;;32.55;17.73;;;2.90;99.90;;;;;;5109684;28;21157;-77
2024/01/05 07:46:41;;;;;;;32.63;17.73;;;2.90;99.90;;;;;;5107777;28;22072;-77
2024/01/05 07:49:06;;;;;;;34.45;17.60;;;3.00;99.90;;;;;;5108479;28;20739;-77
2024/01/05 07:51:32;;;;;;;32.07;17.50;;;2.90;99.90;;;;;;5086883;28;20410;-77
2024/01/05 07:53:58;;;;;;;39.55;18.85;;;3.00;99.90;;;;;;5097384;28;20487;-77
2024/01/05 07:56:24;;;;;;;31.10;17.38;;;3.00;99.90;;;;;;5094641;28;20795;-77
2024/01/05 07:58:49;;;;;;;33.15;16.98;;;3.00;99.90;;;;;;5110151;28;20452;-77
2024/01/05 08:01:17;;;;;;;30.13;17.57;;;3.00;99.90;;;;;;5108989;28;20489;-77
2024/01/05 08:03:45;;;;;;;34.67;17.65;;;3.00;99.90;;;;;;5108817;28;20432;-77
2024/01/05 08:06:18;;;;;;;32.60;17.58;;;3.00;99.90;;;;;;5108287;28;20449;-77
2024/01/05 08:08:46;;;;;;;42.20;19.57;;;3.00;99.90;;;;;;5108449;28;20483;-77
2024/01/05 08:11:12;;;;;;;40.45;20.33;;;3.00;99.90;;;;;;5108889;28;20453;-77
2024/01/05 08:13:40;;;;;;;40.10;20.10;;;3.00;99.90;;;;;;5108381;28;20408;-77
2024/01/05 08:16:06;;;;;;;42.17;20.65;;;3.00;99.90;;;;;;5103966;28;20398;-77
2024/01/05 08:18:32;;;;;;;44.07;21.60;;;3.00;99.90;;;;;;5099974;28;21232;-78
2024/01/05 08:20:57;;;;;;;41.97;21.60;;;3.00;99.90;;;;;;5087617;28;20425;-78
2024/01/05 08:23:23;;;;;;;42.17;21.27;;;3.00;99.90;;;;;;5106292;28;20491;-77
2024/01/05 08:25:49;;;;;;;41.63;22.67;;;3.00;99.90;;;;;;5101058;28;20409;-77
2024/01/05 08:28:15;;;;;;;44.73;22.23;;;3.00;99.90;;;;;;5105192;28;20763;-77
2024/01/05 08:30:41;;;;;;;41.03;21.77;;;3.00;99.90;;;;;;5099941;28;20459;-78
2024/01/05 08:33:06;;;;;;;43.93;22.87;;;3.10;99.90;;;;;;5097273;28;20899;-78
2024/01/05 08:35:33;;;;;;;36.97;20.98;;;3.10;99.90;;;;;;5103047;28;20406;-77
2024/01/05 08:37:59;;;;;;;38.60;21.77;;;3.10;99.90;;;;;;5104778;28;20423;-78
2024/01/05 08:40:27;;;;;;;49.40;22.93;;;3.10;99.90;;;;;;5100213;28;20410;-77
2024/01/05 08:42:54;;;;;;;45.50;22.83;;;3.10;99.90;;;;;;5105830;28;20507;-78
2024/01/05 08:45:20;;;;;;;38.92;20.90;;;3.10;99.90;;;;;;5101809;28;20756;-76
2024/01/05 08:47:45;;;;;;;36.37;19.73;;;3.10;99.90;;;;;;5106129;28;20497;-75
2024/01/05 08:50:11;;;;;;;39.17;19.83;;;3.10;99.90;;;;;;5098322;28;20402;-77
2024/01/05 08:52:37;;;;;;;40.97;20.00;;;3.10;99.90;;;;;;5088036;28;20482;-76
2024/01/05 08:55:04;;;;;;;39.93;19.70;;;3.10;99.90;;;;;;5092565;28;20483;-76
2024/01/05 08:57:30;;;;;;;40.10;19.95;;;3.10;99.90;;;;;;5109003;28;20407;-78
2024/01/05 08:59:55;;;;;;;37.60;19.30;;;3.20;99.90;;;;;;5107231;28;20401;-76
2024/01/05 09:02:22;;;;;;;35.10;18.85;;;3.20;99.90;;;;;;5108658;28;20420;-77
2024/01/05 09:04:48;;;;;;;36.45;19.00;;;3.20;99.90;;;;;;5105804;28;20424;-76
2024/01/05 09:07:14;;;;;;;34.65;18.05;;;3.20;99.90;;;;;;5089984;28;20400;-77
2024/01/05 09:09:40;;;;;;;35.47;18.45;;;3.20;99.90;;;;;;5104391;28;20496;-77
2024/01/05 09:12:07;;;;;;;37.08;19.27;;;3.20;99.90;;;;;;5108113;28;20393;-76
2024/01/05 09:14:32;;;;;;;32.33;18.10;;;3.20;99.90;;;;;;5104414;28;20966;-76
2024/01/05 09:16:58;;;;;;;31.20;16.77;;;3.30;99.90;;;;;;5106022;28;20412;-77
2024/01/05 09:19:24;;;;;;;36.13;18.57;;;3.30;99.90;;;;;;5105696;28;20443;-77
2024/01/05 09:21:49;;;;;;;32.07;17.53;;;3.30;99.90;;;;;;5107937;28;20396;-76
2024/01/05 09:24:15;;;;;;;36.90;18.42;;;3.30;99.90;;;;;;5104293;28;20432;-77
2024/01/05 09:26:42;;;;;;;36.03;18.00;;;3.30;99.90;;;;;;5096900;28;20440;-76
2024/01/05 09:29:07;;;;;;;35.78;17.55;;;3.30;99.90;;;;;;5090877;28;20404;-77
2024/01/05 09:31:33;;;;;;;38.40;18.02;;;3.30;99.90;;;;;;5105568;28;20400;-76
2024/01/05 09:33:59;;;;;;;36.05;18.13;;;3.30;99.90;;;;;;5103962;28;20404;-77
2024/01/05 09:36:25;;;;;;;40.28;20.23;;;3.30;99.90;;;;;;5106766;28;20483;-77
2024/01/05 09:38:50;;;;;;;35.78;18.48;;;3.30;99.90;;;;;;5102977;28;20491;-76
2024/01/05 09:41:16;;;;;;;41.50;18.83;;;3.40;99.90;;;;;;5106173;28;20405;-77
2024/01/05 09:43:46;;;;;;;31.38;16.33;;;3.40;99.90;;;;;;5102651;28;20428;-77
2024/01/05 09:46:12;;;;;;;30.92;16.40;;;3.40;99.90;;;;;;5105023;28;21009;-77
2024/01/05 09:48:38;;;;;;;31.80;15.85;;;3.40;99.90;;;;;;5102357;28;20440;-77
2024/01/05 09:51:07;;;;;;;30.63;16.50;;;3.40;99.90;;;;;;5106018;28;20477;-77
2024/01/05 09:53:32;;;;;;;31.63;15.25;;;3.40;99.90;;;;;;5073828;28;20428;-77
2024/01/05 09:56:00;;;;;;;28.90;14.80;;;3.40;99.90;;;;;;5106828;28;20447;-77
2024/01/05 09:58:25;;;;;;;30.83;15.07;;;3.50;99.90;;;;;;5100269;28;20967;-77
2024/01/05 10:00:52;;;;;;;30.15;15.35;;;3.50;99.90;;;;;;5098968;28;20483;-78
2024/01/05 10:03:23;;;;;;;35.13;16.80;;;3.50;99.90;;;;;;5099353;28;20429;-77
2024/01/05 10:05:56;;;;;;;33.33;15.10;;;3.50;99.90;;;;;;5099728;28;20412;-77
2024/01/05 10:08:22;;;;;;;32.33;15.90;;;3.60;99.90;;;;;;5095250;28;20400;-77
2024/01/05 10:10:56;;;;;;;28.87;14.27;;;3.60;99.90;;;;;;5104239;28;20494;-77
2024/01/05 10:13:22;;;;;;;29.63;14.40;;;3.60;99.90;;;;;;5088541;28;20440;-77
2024/01/05 10:16:00;;;;;;;28.65;14.80;;;3.60;99.90;;;;;;5103709;28;20442;-78
2024/01/05 10:18:28;;;;;;;26.70;13.45;;;3.70;99.90;;;;;;5105567;28;20416;-78
2024/01/05 10:20:55;;;;;;;27.55;13.95;;;3.70;99.90;;;;;;5101172;28;20406;-78
2024/01/05 10:23:21;;;;;;;24.83;13.03;;;3.70;99.90;;;;;;5098483;28;20515;-77
2024/01/05 10:25:47;;;;;;;20.63;12.50;;;3.70;99.90;;;;;;5103990;28;20445;-78
2024/01/05 10:28:23;;;;;;;24.53;12.27;;;3.70;99.90;;;;;;5105097;28;20434;-78
2024/01/05 10:30:49;;;;;;;21.88;12.23;;;3.70;99.90;;;;;;5102297;28;20403;-78
2024/01/05 10:33:19;;;;;;;22.40;12.48;;;3.70;99.90;;;;;;5105750;27;20406;-78
2024/01/05 10:35:45;;;;;;;24.00;12.60;;;3.70;99.90;;;;;;5098198;28;20407;-78
2024/01/05 10:38:13;;;;;;;22.15;12.00;;;3.70;99.90;;;;;;5099453;28;20407;-78
2024/01/05 10:40:39;;;;;;;20.63;12.35;;;3.70;99.90;;;;;;5091530;28;20487;-77
2024/01/05 10:43:13;;;;;;;23.25;12.27;;;3.70;99.90;;;;;;5103639;28;20432;-78
2024/01/05 10:45:41;;;;;;;23.30;12.73;;;3.70;99.90;;;;;;5105800;28;20771;-78
2024/01/05 10:48:13;;;;;;;21.40;11.77;;;3.70;99.90;;;;;;5103880;28;20404;-78
2024/01/05 10:50:41;;;;;;;21.15;11.55;;;3.70;99.90;;;;;;5083509;28;20412;-78
2024/01/05 10:53:08;;;;;;;22.95;12.13;;;3.70;99.90;;;;;;5090854;28;20505;-78
2024/01/05 10:55:35;;;;;;;20.23;11.00;;;3.70;99.90;;;;;;5106404;28;20496;-78
2024/01/05 10:58:01;;;;;;;19.58;11.15;;;3.80;99.90;;;;;;5104925;28;20486;-79
2024/01/05 11:00:27;;;;;;;21.25;10.63;;;3.80;99.90;;;;;;5106168;28;20840;-78
2024/01/05 11:03:04;;;;;;;19.90;11.68;;;3.80;99.90;;;;;;5105499;28;20438;-78
2024/01/05 11:05:31;;;;;;;21.53;11.03;;;3.80;99.90;;;;;;5110650;28;20435;-78
2024/01/05 11:07:59;;;;;;;21.83;11.03;;;3.80;99.90;;;;;;5107738;28;21442;-78
2024/01/05 11:10:47;;;;;;;25.92;12.38;;;3.90;99.90;;;;;;5110541;27;20414;-78
2024/01/05 11:13:40;;;;;;;26.67;12.82;;;3.90;99.90;;;;;;5108989;28;20408;-78
2024/01/05 11:16:34;;;;;;;30.90;13.68;;;3.90;99.90;;;;;;5109228;27;20770;-78
2024/01/05 11:19:16;;;;;;;28.95;13.75;;;3.90;99.90;;;;;;5095778;28;20406;-78
2024/01/05 11:21:59;;;;;;;25.15;13.23;;;4.00;99.90;;;;;;5108696;28;20460;-78
2024/01/05 11:24:26;;;;;;;26.60;11.98;;;4.00;99.90;;;;;;5108155;28;20507;-77
2024/01/05 11:26:54;;;;;;;24.02;12.23;;;4.00;99.90;;;;;;5109571;28;20479;-78
2024/01/05 11:29:44;;;;;;;26.60;12.68;;;4.10;99.90;;;;;;5091428;28;20400;-78
2024/01/05 11:32:42;;;;;;;26.15;12.40;;;4.10;99.90;;;;;;5105984;28;20760;-78
2024/01/05 11:35:17;;;;;;;29.58;13.27;;;4.10;99.90;;;;;;5105351;28;21125;-78
2024/01/05 11:37:44;;;;;;;28.58;13.20;;;4.10;99.90;;;;;;5108992;28;20404;-78
2024/01/05 11:40:26;;;;;;;25.17;12.90;;;4.10;99.90;;;;;;5104690;28;21043;-78
2024/01/05 11:42:52;;;;;;;26.73;13.15;;;4.10;99.90;;;;;;5108153;28;20921;-77
2024/01/05 11:45:44;;;;;;;24.55;13.52;;;4.20;99.90;;;;;;5105491;28;20420;-79
2024/01/05 11:48:10;;;;;;;22.52;11.52;;;4.10;99.90;;;;;;5099075;28;20409;-78
2024/01/05 11:50:37;;;;;;;22.13;11.48;;;4.10;99.90;;;;;;5108488;28;20411;-77
2024/01/05 11:53:15;;;;;;;23.02;12.73;;;4.10;99.90;;;;;;5075509;28;20410;-78
2024/01/05 11:55:49;;;;;;;24.27;12.73;;;4.10;99.90;;;;;;5098539;28;20415;-78
2024/01/05 11:58:20;;;;;;;26.33;12.32;;;4.20;99.90;;;;;;5108372;28;20918;-77
2024/01/05 12:00:47;;;;;;;26.33;14.18;;;4.20;99.90;;;;;;5108803;28;21092;-78
2024/01/05 12:03:14;;;;;;;21.55;12.40;;;4.20;99.90;;;;;;5108988;28;20834;-78
2024/01/05 12:05:40;;;;;;;24.42;14.73;;;4.20;99.90;;;;;;5110341;28;20933;-78
2024/01/05 12:08:10;;;;;;;20.35;13.52;;;4.20;99.90;;;;;;5106391;28;20428;-78
2024/01/05 12:10:37;;;;;;;22.55;14.23;;;4.20;99.90;;;;;;5109536;28;21179;-78
2024/01/05 12:13:03;;;;;;;22.33;13.13;;;4.20;99.90;;;;;;5106995;28;20794;-78
2024/01/05 12:15:29;;;;;;;26.60;14.75;;;4.10;99.90;;;;;;5108031;28;20408;-78
2024/01/05 12:18:04;;;;;;;23.87;14.30;;;4.10;99.90;;;;;;5106876;28;20397;-78
2024/01/05 12:20:31;;;;;;;25.77;15.05;;;4.20;99.90;;;;;;5106051;28;21034;-77
2024/01/05 12:22:57;;;;;;;28.23;14.88;;;4.20;99.90;;;;;;5108173;28;20482;-77
2024/01/05 12:25:22;;;;;;;23.00;14.23;;;4.20;99.90;;;;;;5094900;27;20842;-78
2024/01/05 12:27:48;;;;;;;23.17;15.93;;;4.20;99.90;;;;;;5107299;28;20419;-78
2024/01/05 12:30:14;;;;;;;21.85;14.25;;;4.20;99.90;;;;;;5104372;28;20433;-78
2024/01/05 12:32:41;;;;;;;20.90;14.40;;;4.30;99.90;;;;;;5106954;28;20431;-78
2024/01/05 12:35:07;;;;;;;24.88;14.98;;;4.20;99.90;;;;;;5105481;28;20400;-78
2024/01/05 12:37:33;;;;;;;26.55;14.38;;;4.30;99.90;;;;;;5104469;28;20415;-78